sensor_id;sensor_type;location;lat;lon;timestamp;pressure;altitude;pressure_sealevel;temperature;humidity
44531;BME280;30240;47.418;0.700;2023-06-26T00:00:53;100666.09497070312;;;21.07;77.55
44531;BME280;30240;47.418;0.700;2023-06-26T00:03:19;100677.31323242188;;;20.96;77.67
44531;BME280;30240;47.418;0.700;2023-06-26T00:05:43;100678.71704101562;;;20.82;77.92
44531;BME280;30240;47.418;0.700;2023-06-26T00:08:09;100677.490234375;;;20.78;78.06
44531;BME280;30240;47.418;0.700;2023-06-26T00:10:34;100677.490234375;;;20.78;78.06
44531;BME280;30240;47.418;0.700;2023-06-26T00:12:59;100678.79638671875;;;20.74;78.0
44531;BME280;30240;47.418;0.700;2023-06-26T00:15:23;100681.41479492188;;;20.92;77.68
44531;BME280;30240;47.418;0.700;2023-06-26T00:17:48;100677.96020507812;;;20.61;78.19
44531;BME280;30240;47.418;0.700;2023-06-26T00:20:14;100687.890625;;;20.72;77.79
44531;BME280;30240;47.418;0.700;2023-06-26T00:22:39;100687.890625;;;20.72;77.79
44531;BME280;30240;47.418;0.700;2023-06-26T00:25:04;100693.46923828125;;;20.51;78.22
44531;BME280;30240;47.418;0.700;2023-06-26T00:27:28;100696.826171875;;;20.41;78.25
44531;BME280;30240;47.418;0.700;2023-06-26T00:29:54;100702.5146484375;;;20.43;78.28
44531;BME280;30240;47.418;0.700;2023-06-26T00:32:19;100704.21142578125;;;20.51;78.14
44531;BME280;30240;47.418;0.700;2023-06-26T00:34:44;100704.21142578125;;;20.51;78.14
44531;BME280;30240;47.418;0.700;2023-06-26T00:37:09;100708.79516601562;;;20.32;78.09
44531;BME280;30240;47.418;0.700;2023-06-26T00:39:34;100718.26782226562;;;20.37;77.81
44531;BME280;30240;47.418;0.700;2023-06-26T00:41:58;100723.91967773438;;;20.37;77.54
44531;BME280;30240;47.418;0.700;2023-06-26T00:44:23;100727.86865234375;;;20.39;75.75
44531;BME280;30240;47.418;0.700;2023-06-26T00:46:49;100727.86865234375;;;20.39;75.75
44531;BME280;30240;47.418;0.700;2023-06-26T00:49:14;100731.8603515625;;;20.25;74.47
44531;BME280;30240;47.418;0.700;2023-06-26T00:51:39;100732.62329101562;;;20.16;73.63
44531;BME280;30240;47.418;0.700;2023-06-26T00:54:04;100737.60986328125;;;20.18;73.11
44531;BME280;30240;47.418;0.700;2023-06-26T00:56:29;100743.359375;;;20.33;73.08
44531;BME280;30240;47.418;0.700;2023-06-26T00:58:53;100743.359375;;;20.33;73.08
44531;BME280;30240;47.418;0.700;2023-06-26T01:01:19;100743.43872070312;;;20.16;74.27
44531;BME280;30240;47.418;0.700;2023-06-26T01:03:44;100736.669921875;;;20.08;75.73
44531;BME280;30240;47.418;0.700;2023-06-26T01:06:10;100735.56518554688;;;19.99;76.52
44531;BME280;30240;47.418;0.700;2023-06-26T01:08:34;100743.1396484375;;;20.12;75.84
44531;BME280;30240;47.418;0.700;2023-06-26T01:10:59;100743.1396484375;;;20.12;75.84
44531;BME280;30240;47.418;0.700;2023-06-26T01:13:24;100744.482421875;;;20.41;75.28
44531;BME280;30240;47.418;0.700;2023-06-26T01:15:49;100749.40795898438;;;20.16;75.43
44531;BME280;30240;47.418;0.700;2023-06-26T01:18:14;100754.72412109375;;;20.19;75.21
44531;BME280;30240;47.418;0.700;2023-06-26T01:20:39;100758.12377929688;;;20.09;74.99
44531;BME280;30240;47.418;0.700;2023-06-26T01:23:07;100758.12377929688;;;20.09;74.99
44531;BME280;30240;47.418;0.700;2023-06-26T01:25:33;100759.716796875;;;20.04;74.38
44531;BME280;30240;47.418;0.700;2023-06-26T01:27:55;100764.26391601562;;;19.88;73.93
44531;BME280;30240;47.418;0.700;2023-06-26T01:30:19;100767.138671875;;;19.88;73.8
44531;BME280;30240;47.418;0.700;2023-06-26T01:32:44;100773.40698242188;;;20.05;72.36
44531;BME280;30240;47.418;0.700;2023-06-26T01:35:09;100776.09252929688;;;20.12;72.01
44531;BME280;30240;47.418;0.700;2023-06-26T01:37:33;100776.09252929688;;;20.12;72.01
44531;BME280;30240;47.418;0.700;2023-06-26T01:39:59;100779.06494140625;;;20.08;71.36
44531;BME280;30240;47.418;0.700;2023-06-26T01:42:24;100782.51342773438;;;19.92;71.97
44531;BME280;30240;47.418;0.700;2023-06-26T01:44:49;100789.111328125;;;19.87;71.61
44531;BME280;30240;47.418;0.700;2023-06-26T01:47:16;100790.51513671875;;;20.02;70.05
44531;BME280;30240;47.418;0.700;2023-06-26T01:49:47;100790.51513671875;;;20.02;70.05
44531;BME280;30240;47.418;0.700;2023-06-26T01:52:07;100790.1123046875;;;20.04;69.72
44531;BME280;30240;47.418;0.700;2023-06-26T01:54:30;100792.54760742188;;;19.96;69.12
44531;BME280;30240;47.418;0.700;2023-06-26T01:56:54;100797.54028320312;;;19.99;69.13
44531;BME280;30240;47.418;0.700;2023-06-26T01:59:19;100798.01635742188;;;19.94;69.42
44531;BME280;30240;47.418;0.700;2023-06-26T02:01:44;100798.01635742188;;;19.94;69.42
44531;BME280;30240;47.418;0.700;2023-06-26T02:04:09;100798.35815429688;;;20.08;68.34
44531;BME280;30240;47.418;0.700;2023-06-26T02:06:33;100801.56860351562;;;20.11;68.75
44531;BME280;30240;47.418;0.700;2023-06-26T02:08:59;100806.92138671875;;;19.85;68.55
44531;BME280;30240;47.418;0.700;2023-06-26T02:11:24;100807.62329101562;;;19.78;69.18
44531;BME280;30240;47.418;0.700;2023-06-26T02:13:49;100807.62329101562;;;19.78;69.18
44531;BME280;30240;47.418;0.700;2023-06-26T02:16:13;100807.40356445312;;;19.6;69.58
44531;BME280;30240;47.418;0.700;2023-06-26T02:18:39;100810.4248046875;;;19.6;69.71
44531;BME280;30240;47.418;0.700;2023-06-26T02:21:04;100815.52124023438;;;19.74;69.57
44531;BME280;30240;47.418;0.700;2023-06-26T02:23:28;100813.8916015625;;;19.64;69.77
44531;BME280;30240;47.418;0.700;2023-06-26T02:25:53;100813.8916015625;;;19.64;69.77
44531;BME280;30240;47.418;0.700;2023-06-26T02:28:18;100814.36157226562;;;19.5;69.86
44531;BME280;30240;47.418;0.700;2023-06-26T02:30:44;100820.08056640625;;;19.57;69.68
44531;BME280;30240;47.418;0.700;2023-06-26T02:33:08;100819.12231445312;;;19.46;69.9
44531;BME280;30240;47.418;0.700;2023-06-26T02:35:34;100820.20874023438;;;19.45;70.17
44531;BME280;30240;47.418;0.700;2023-06-26T02:37:58;100820.20874023438;;;19.45;70.17
44531;BME280;30240;47.418;0.700;2023-06-26T02:40:23;100817.47436523438;;;19.23;70.5
44531;BME280;30240;47.418;0.700;2023-06-26T02:42:48;100819.37255859375;;;19.22;70.74
44531;BME280;30240;47.418;0.700;2023-06-26T02:45:14;100820.42846679688;;;19.26;70.52
44531;BME280;30240;47.418;0.700;2023-06-26T02:47:38;100829.93774414062;;;19.43;70.31
44531;BME280;30240;47.418;0.700;2023-06-26T02:50:04;100829.93774414062;;;19.43;70.31
44531;BME280;30240;47.418;0.700;2023-06-26T02:52:29;100827.36206054688;;;19.26;70.58
44531;BME280;30240;47.418;0.700;2023-06-26T02:54:53;100835.23559570312;;;19.3;70.24
44531;BME280;30240;47.418;0.700;2023-06-26T02:57:18;100840.34423828125;;;19.14;70.77
44531;BME280;30240;47.418;0.700;2023-06-26T02:59:43;100847.45483398438;;;19.21;70.39
44531;BME280;30240;47.418;0.700;2023-06-26T03:02:09;100849.40795898438;;;19.1;70.57
44531;BME280;30240;47.418;0.700;2023-06-26T03:04:34;100849.40795898438;;;19.1;70.57
44531;BME280;30240;47.418;0.700;2023-06-26T03:06:58;100852.98461914062;;;19.18;70.24
44531;BME280;30240;47.418;0.700;2023-06-26T03:09:23;100847.63793945312;;;19.08;70.43
44531;BME280;30240;47.418;0.700;2023-06-26T03:11:49;100846.93603515625;;;19.16;70.34
44531;BME280;30240;47.418;0.700;2023-06-26T03:14:14;100852.81372070312;;;19.02;70.52
44531;BME280;30240;47.418;0.700;2023-06-26T03:16:39;100852.81372070312;;;19.02;70.52
44531;BME280;30240;47.418;0.700;2023-06-26T03:19:03;100855.07202148438;;;18.93;70.42
44531;BME280;30240;47.418;0.700;2023-06-26T03:21:28;100859.00268554688;;;18.95;70.46
44531;BME280;30240;47.418;0.700;2023-06-26T03:23:53;100865.26489257812;;;18.78;71.41
44531;BME280;30240;47.418;0.700;2023-06-26T03:26:19;100864.9658203125;;;18.81;71.79
44531;BME280;30240;47.418;0.700;2023-06-26T03:28:44;100864.9658203125;;;18.81;71.79
44531;BME280;30240;47.418;0.700;2023-06-26T03:31:08;100867.65747070312;;;18.77;72.4
44531;BME280;30240;47.418;0.700;2023-06-26T03:33:33;100866.46728515625;;;18.94;72.03
44531;BME280;30240;47.418;0.700;2023-06-26T03:35:59;100868.06030273438;;;18.67;72.76
44531;BME280;30240;47.418;0.700;2023-06-26T03:38:23;100870.81298828125;;;18.67;73.06
44531;BME280;30240;47.418;0.700;2023-06-26T03:40:49;100870.81298828125;;;18.67;73.06
44531;BME280;30240;47.418;0.700;2023-06-26T03:43:14;100875.59204101562;;;18.57;73.54
44531;BME280;30240;47.418;0.700;2023-06-26T03:45:38;100879.04663085938;;;18.44;73.99
44531;BME280;30240;47.418;0.700;2023-06-26T03:48:04;100880.80444335938;;;18.32;74.36
44531;BME280;30240;47.418;0.700;2023-06-26T03:50:28;100880.95092773438;;;18.39;74.43
44531;BME280;30240;47.418;0.700;2023-06-26T03:52:53;100880.95092773438;;;18.39;74.43
44531;BME280;30240;47.418;0.700;2023-06-26T03:55:19;100881.99462890625;;;18.38;74.47
44531;BME280;30240;47.418;0.700;2023-06-26T03:57:44;100885.43701171875;;;18.11;74.78
44531;BME280;30240;47.418;0.700;2023-06-26T04:00:09;100888.18969726562;;;18.28;74.63
44531;BME280;30240;47.418;0.700;2023-06-26T04:02:34;100897.07641601562;;;18.14;75.1
44531;BME280;30240;47.418;0.700;2023-06-26T04:04:58;100897.07641601562;;;18.14;75.1
44531;BME280;30240;47.418;0.700;2023-06-26T04:07:24;100897.56469726562;;;18.07;75.25
44531;BME280;30240;47.418;0.700;2023-06-26T04:09:48;100894.81201171875;;;18.07;75.48
44531;BME280;30240;47.418;0.700;2023-06-26T04:12:13;100905.35888671875;;;18.1;75.47
44531;BME280;30240;47.418;0.700;2023-06-26T04:14:38;100911.44409179688;;;18.07;75.66
44531;BME280;30240;47.418;0.700;2023-06-26T04:17:04;100911.44409179688;;;18.07;75.66
44531;BME280;30240;47.418;0.700;2023-06-26T04:19:29;100916.15600585938;;;18.08;75.66
44531;BME280;30240;47.418;0.700;2023-06-26T04:21:54;100919.189453125;;;18.08;75.9
44531;BME280;30240;47.418;0.700;2023-06-26T04:24:18;100922.96142578125;;;17.93;76.39
44531;BME280;30240;47.418;0.700;2023-06-26T04:26:43;100928.564453125;;;17.9;76.72
44531;BME280;30240;47.418;0.700;2023-06-26T04:29:09;100925.33569335938;;;17.9;76.72
44531;BME280;30240;47.418;0.700;2023-06-26T04:31:34;100925.33569335938;;;17.98;76.52
44531;BME280;30240;47.418;0.700;2023-06-26T04:33:58;100923.68774414062;;;17.91;76.4
44531;BME280;30240;47.418;0.700;2023-06-26T04:36:24;100921.09375;;;18.08;76.3
44531;BME280;30240;47.418;0.700;2023-06-26T04:38:48;100929.2236328125;;;18.05;76.39
44531;BME280;30240;47.418;0.700;2023-06-26T04:41:14;100927.7099609375;;;18.0;76.57
44531;BME280;30240;47.418;0.700;2023-06-26T04:43:39;100927.7099609375;;;18.0;76.57
44531;BME280;30240;47.418;0.700;2023-06-26T04:46:03;100931.62231445312;;;17.96;76.96
44531;BME280;30240;47.418;0.700;2023-06-26T04:48:29;100934.84497070312;;;18.08;76.51
44531;BME280;30240;47.418;0.700;2023-06-26T04:50:54;100938.48266601562;;;17.79;77.49
44531;BME280;30240;47.418;0.700;2023-06-26T04:53:19;100938.76342773438;;;17.83;77.53
44531;BME280;30240;47.418;0.700;2023-06-26T04:55:44;100938.76342773438;;;17.83;77.53
44531;BME280;30240;47.418;0.700;2023-06-26T04:58:08;100935.06469726562;;;17.98;77.39
44531;BME280;30240;47.418;0.700;2023-06-26T05:00:33;100941.68701171875;;;17.94;77.82
44531;BME280;30240;47.418;0.700;2023-06-26T05:02:58;100944.39697265625;;;17.7;78.54
44531;BME280;30240;47.418;0.700;2023-06-26T05:05:24;100944.32983398438;;;18.12;77.78
44531;BME280;30240;47.418;0.700;2023-06-26T05:07:48;100944.32983398438;;;18.12;77.78
44531;BME280;30240;47.418;0.700;2023-06-26T05:10:14;100947.61962890625;;;17.98;78.05
44531;BME280;30240;47.418;0.700;2023-06-26T05:12:38;100945.4833984375;;;17.93;78.33
44531;BME280;30240;47.418;0.700;2023-06-26T05:15:04;100950.2685546875;;;17.9;78.46
44531;BME280;30240;47.418;0.700;2023-06-26T05:17:28;100954.35791015625;;;17.63;79.31
44531;BME280;30240;47.418;0.700;2023-06-26T05:19:53;100954.35791015625;;;17.63;79.31
44531;BME280;30240;47.418;0.700;2023-06-26T05:22:19;100960.13793945312;;;17.76;78.89
44531;BME280;30240;47.418;0.700;2023-06-26T05:24:46;100958.58764648438;;;17.7;79.39
44531;BME280;30240;47.418;0.700;2023-06-26T05:27:09;100965.56396484375;;;17.48;79.93
44531;BME280;30240;47.418;0.700;2023-06-26T05:29:34;100964.17236328125;;;17.75;79.49
44531;BME280;30240;47.418;0.700;2023-06-26T05:31:59;100964.17236328125;;;17.75;79.49
44531;BME280;30240;47.418;0.700;2023-06-26T05:34:24;100961.94458007812;;;17.41;79.79
44531;BME280;30240;47.418;0.700;2023-06-26T05:36:50;100960.6689453125;;;17.68;79.73
44531;BME280;30240;47.418;0.700;2023-06-26T05:39:14;100956.591796875;;;17.8;79.33
44531;BME280;30240;47.418;0.700;2023-06-26T05:41:39;100961.40747070312;;;18.07;78.52
44531;BME280;30240;47.418;0.700;2023-06-26T05:44:04;100961.40747070312;;;18.07;78.52
44531;BME280;30240;47.418;0.700;2023-06-26T05:46:28;100963.9892578125;;;17.82;78.95
44531;BME280;30240;47.418;0.700;2023-06-26T05:48:53;100966.59545898438;;;17.76;79.69
44531;BME280;30240;47.418;0.700;2023-06-26T05:51:19;100971.49047851562;;;17.86;79.27
44531;BME280;30240;47.418;0.700;2023-06-26T05:53:44;100974.07836914062;;;17.83;78.87
44531;BME280;30240;47.418;0.700;2023-06-26T05:56:09;100974.07836914062;;;17.83;78.87
44531;BME280;30240;47.418;0.700;2023-06-26T05:58:34;100973.24829101562;;;17.87;78.9
44531;BME280;30240;47.418;0.700;2023-06-26T06:00:58;100974.76806640625;;;17.91;78.56
44531;BME280;30240;47.418;0.700;2023-06-26T06:03:23;100980.88989257812;;;18.18;78.14
44531;BME280;30240;47.418;0.700;2023-06-26T06:05:48;100980.45043945312;;;18.15;78.55
44531;BME280;30240;47.418;0.700;2023-06-26T06:08:13;100975.03051757812;;;17.86;78.64
44531;BME280;30240;47.418;0.700;2023-06-26T06:10:38;100975.03051757812;;;17.86;78.64
44531;BME280;30240;47.418;0.700;2023-06-26T06:13:03;100978.96728515625;;;18.38;77.84
44531;BME280;30240;47.418;0.700;2023-06-26T06:15:29;100982.26318359375;;;18.51;77.03
44531;BME280;30240;47.418;0.700;2023-06-26T06:17:53;100995.51391601562;;;18.63;75.77
44531;BME280;30240;47.418;0.700;2023-06-26T06:20:19;100989.25170898438;;;18.52;76.52
44531;BME280;30240;47.418;0.700;2023-06-26T06:22:43;100989.25170898438;;;18.52;76.52
44531;BME280;30240;47.418;0.700;2023-06-26T06:25:09;100989.013671875;;;18.81;75.73
44531;BME280;30240;47.418;0.700;2023-06-26T06:27:33;100992.41943359375;;;18.87;75.59
44531;BME280;30240;47.418;0.700;2023-06-26T06:29:58;100995.39184570312;;;18.83;74.9
44531;BME280;30240;47.418;0.700;2023-06-26T06:32:24;100996.25244140625;;;18.93;75.05
44531;BME280;30240;47.418;0.700;2023-06-26T06:34:48;100996.25244140625;;;18.93;75.05
44531;BME280;30240;47.418;0.700;2023-06-26T06:37:14;100994.51293945312;;;19.16;74.29
44531;BME280;30240;47.418;0.700;2023-06-26T06:39:38;100999.79858398438;;;18.77;75.37
44531;BME280;30240;47.418;0.700;2023-06-26T06:42:04;101001.513671875;;;19.25;74.38
44531;BME280;30240;47.418;0.700;2023-06-26T06:44:28;101000.14038085938;;;18.56;75.55
44531;BME280;30240;47.418;0.700;2023-06-26T06:46:53;101000.14038085938;;;18.56;75.55
44531;BME280;30240;47.418;0.700;2023-06-26T06:49:19;101001.93481445312;;;18.74;74.61
44531;BME280;30240;47.418;0.700;2023-06-26T06:51:43;101010.51025390625;;;18.95;74.06
44531;BME280;30240;47.418;0.700;2023-06-26T06:54:08;101011.85913085938;;;19.04;73.6
44531;BME280;30240;47.418;0.700;2023-06-26T06:56:33;101012.82958984375;;;19.18;73.5
44531;BME280;30240;47.418;0.700;2023-06-26T06:58:59;101012.82958984375;;;19.18;73.5
44531;BME280;30240;47.418;0.700;2023-06-26T07:01:23;101013.28735351562;;;19.07;73.87
44531;BME280;30240;47.418;0.700;2023-06-26T07:03:48;101012.99438476562;;;18.76;74.42
44531;BME280;30240;47.418;0.700;2023-06-26T07:06:13;101015.68603515625;;;18.97;74.06
44531;BME280;30240;47.418;0.700;2023-06-26T07:08:38;101011.90795898438;;;18.91;73.73
44531;BME280;30240;47.418;0.700;2023-06-26T07:11:04;101011.90795898438;;;18.91;73.73
44531;BME280;30240;47.418;0.700;2023-06-26T07:13:28;101014.97802734375;;;19.14;73.44
44531;BME280;30240;47.418;0.700;2023-06-26T07:15:53;101017.85888671875;;;19.28;73.02
44531;BME280;30240;47.418;0.700;2023-06-26T07:18:18;101026.8310546875;;;19.42;70.09
44531;BME280;30240;47.418;0.700;2023-06-26T07:20:43;101029.96826171875;;;19.37;69.27
44531;BME280;30240;47.418;0.700;2023-06-26T07:23:09;101029.96826171875;;;19.37;69.27
44531;BME280;30240;47.418;0.700;2023-06-26T07:25:34;101024.43237304688;;;19.67;68.77
44531;BME280;30240;47.418;0.700;2023-06-26T07:27:58;101024.53002929688;;;19.94;68.4
44531;BME280;30240;47.418;0.700;2023-06-26T07:30:24;101022.5341796875;;;19.89;68.23
44531;BME280;30240;47.418;0.700;2023-06-26T07:32:48;101023.29711914062;;;19.84;67.28
44531;BME280;30240;47.418;0.700;2023-06-26T07:35:14;101024.70092773438;;;20.11;66.69
44531;BME280;30240;47.418;0.700;2023-06-26T07:37:38;101024.70092773438;;;20.11;66.69
44531;BME280;30240;47.418;0.700;2023-06-26T07:40:04;101022.03979492188;;;20.09;67.12
44531;BME280;30240;47.418;0.700;2023-06-26T07:42:29;101014.111328125;;;20.01;67.15
44531;BME280;30240;47.418;0.700;2023-06-26T07:44:53;101014.2333984375;;;19.5;68.87
44531;BME280;30240;47.418;0.700;2023-06-26T07:47:19;101018.51806640625;;;19.84;65.54
44531;BME280;30240;47.418;0.700;2023-06-26T07:49:44;101018.51806640625;;;19.84;65.54
44531;BME280;30240;47.418;0.700;2023-06-26T07:52:08;101021.00219726562;;;19.7;65.98
44531;BME280;30240;47.418;0.700;2023-06-26T07:54:33;101020.64208984375;;;19.54;66.66
44531;BME280;30240;47.418;0.700;2023-06-26T07:57:00;101026.318359375;;;19.87;64.83
44531;BME280;30240;47.418;0.700;2023-06-26T07:59:25;101031.15844726562;;;20.41;64.08
44531;BME280;30240;47.418;0.700;2023-06-26T08:01:49;101031.15844726562;;;20.41;64.08
44531;BME280;30240;47.418;0.700;2023-06-26T08:04:13;101031.82983398438;;;20.89;62.39
44531;BME280;30240;47.418;0.700;2023-06-26T08:06:38;101031.2744140625;;;20.25;63.93
44531;BME280;30240;47.418;0.700;2023-06-26T08:09:03;101035.9375;;;19.47;62.35
44531;BME280;30240;47.418;0.700;2023-06-26T08:11:28;101037.92724609375;;;20.41;62.05
44531;BME280;30240;47.418;0.700;2023-06-26T08:13:54;101037.92724609375;;;20.41;62.05
44531;BME280;30240;47.418;0.700;2023-06-26T08:16:18;101032.79418945312;;;20.68;60.92
44531;BME280;30240;47.418;0.700;2023-06-26T08:18:43;101034.326171875;;;20.94;59.6
44531;BME280;30240;47.418;0.700;2023-06-26T08:21:08;101034.814453125;;;20.71;58.88
44531;BME280;30240;47.418;0.700;2023-06-26T08:23:33;101029.21752929688;;;20.81;58.24
44531;BME280;30240;47.418;0.700;2023-06-26T08:25:58;101029.21752929688;;;20.81;58.24
44531;BME280;30240;47.418;0.700;2023-06-26T08:28:23;101025.78125;;;21.69;56.97
44531;BME280;30240;47.418;0.700;2023-06-26T08:30:49;101028.7353515625;;;21.19;57.24
44531;BME280;30240;47.418;0.700;2023-06-26T08:33:13;101030.7373046875;;;21.29;54.72
44531;BME280;30240;47.418;0.700;2023-06-26T08:35:39;101025.2197265625;;;22.63;52.8
44531;BME280;30240;47.418;0.700;2023-06-26T08:38:04;101025.2197265625;;;22.63;52.8
44531;BME280;30240;47.418;0.700;2023-06-26T08:40:29;101024.33471679688;;;23.61;50.71
44531;BME280;30240;47.418;0.700;2023-06-26T08:42:54;101029.43725585938;;;23.24;52.41
44531;BME280;30240;47.418;0.700;2023-06-26T08:45:19;101025.7568359375;;;24.39;49.62
44531;BME280;30240;47.418;0.700;2023-06-26T08:47:45;101026.89208984375;;;22.79;52.55
44531;BME280;30240;47.418;0.700;2023-06-26T08:50:12;101026.89208984375;;;22.79;52.55
44531;BME280;30240;47.418;0.700;2023-06-26T08:52:36;101014.1845703125;;;22.86;51.95
44531;BME280;30240;47.418;0.700;2023-06-26T08:55:01;101009.21630859375;;;21.4;54.23
44531;BME280;30240;47.418;0.700;2023-06-26T08:57:25;101016.796875;;;22.33;53.15
44531;BME280;30240;47.418;0.700;2023-06-26T08:59:49;101013.86108398438;;;22.0;53.74
44531;BME280;30240;47.418;0.700;2023-06-26T09:02:14;101013.86108398438;;;22.0;53.74
44531;BME280;30240;47.418;0.700;2023-06-26T09:04:39;101017.24853515625;;;22.96;51.93
44531;BME280;30240;47.418;0.700;2023-06-26T09:07:07;101012.39013671875;;;23.39;50.48
44531;BME280;30240;47.418;0.700;2023-06-26T09:09:28;101011.56005859375;;;23.04;50.7
44531;BME280;30240;47.418;0.700;2023-06-26T09:11:54;101008.31298828125;;;24.35;46.86
44531;BME280;30240;47.418;0.700;2023-06-26T09:14:19;101004.90112304688;;;23.97;46.6
44531;BME280;30240;47.418;0.700;2023-06-26T09:16:45;101004.90112304688;;;23.97;46.6
44531;BME280;30240;47.418;0.700;2023-06-26T09:19:09;101010.85815429688;;;22.37;49.36
44531;BME280;30240;47.418;0.700;2023-06-26T09:21:33;101009.06372070312;;;22.94;48.25
44531;BME280;30240;47.418;0.700;2023-06-26T09:23:59;101016.015625;;;23.14;48.95
44531;BME280;30240;47.418;0.700;2023-06-26T09:26:24;101026.31225585938;;;22.7;50.06
44531;BME280;30240;47.418;0.700;2023-06-26T09:28:49;101026.31225585938;;;22.7;50.06
44531;BME280;30240;47.418;0.700;2023-06-26T09:31:13;101020.98388671875;;;23.2;49.34
44531;BME280;30240;47.418;0.700;2023-06-26T09:33:38;101013.75122070312;;;23.77;50.78
44531;BME280;30240;47.418;0.700;2023-06-26T09:36:05;101017.37670898438;;;25.3;47.22
44531;BME280;30240;47.418;0.700;2023-06-26T09:38:28;101018.10913085938;;;25.28;46.52
44531;BME280;30240;47.418;0.700;2023-06-26T09:40:54;101018.10913085938;;;25.28;46.52
44531;BME280;30240;47.418;0.700;2023-06-26T09:43:18;101017.1875;;;26.35;44.89
44531;BME280;30240;47.418;0.700;2023-06-26T09:45:44;101018.89038085938;;;26.91;44.35
44531;BME280;30240;47.418;0.700;2023-06-26T09:48:08;101018.96362304688;;;25.14;46.77
44531;BME280;30240;47.418;0.700;2023-06-26T09:50:34;101013.53149414062;;;23.92;49.37
44531;BME280;30240;47.418;0.700;2023-06-26T09:52:59;101013.53149414062;;;23.92;49.37
44531;BME280;30240;47.418;0.700;2023-06-26T09:53:07;101013.53149414062;;;23.92;49.37
44531;BME280;30240;47.418;0.700;2023-06-26T09:55:25;101010.4248046875;;;23.8;48.73
44531;BME280;30240;47.418;0.700;2023-06-26T09:57:50;101004.74243164062;;;22.75;51.08
44531;BME280;30240;47.418;0.700;2023-06-26T10:00:14;101008.12377929688;;;22.38;52.81
44531;BME280;30240;47.418;0.700;2023-06-26T10:02:38;101012.18872070312;;;24.81;48.57
44531;BME280;30240;47.418;0.700;2023-06-26T10:05:04;101012.18872070312;;;24.81;48.57
44531;BME280;30240;47.418;0.700;2023-06-26T10:07:29;101015.87524414062;;;23.71;50.28
44531;BME280;30240;47.418;0.700;2023-06-26T10:09:55;101021.76513671875;;;23.52;49.99
44531;BME280;30240;47.418;0.700;2023-06-26T10:12:21;101018.4814453125;;;23.27;51.24
44531;BME280;30240;47.418;0.700;2023-06-26T10:12:26;101018.4814453125;;;23.27;51.24
44531;BME280;30240;47.418;0.700;2023-06-26T10:14:44;101018.54858398438;;;25.28;47.59
44531;BME280;30240;47.418;0.700;2023-06-26T10:17:10;101018.54858398438;;;25.28;47.59
44531;BME280;30240;47.418;0.700;2023-06-26T10:19:35;101015.37475585938;;;24.77;47.53
44531;BME280;30240;47.418;0.700;2023-06-26T10:21:59;101021.44775390625;;;23.63;50.67
44531;BME280;30240;47.418;0.700;2023-06-26T10:24:24;101029.296875;;;24.53;48.16
44531;BME280;30240;47.418;0.700;2023-06-26T10:26:50;101029.931640625;;;25.51;47.46
44531;BME280;30240;47.418;0.700;2023-06-26T10:29:15;101029.931640625;;;25.51;47.46
44531;BME280;30240;47.418;0.700;2023-06-26T10:31:40;101028.93676757812;;;26.41;45.01
44531;BME280;30240;47.418;0.700;2023-06-26T10:34:04;101027.77099609375;;;27.64;42.23
44531;BME280;30240;47.418;0.700;2023-06-26T10:36:30;101024.92065429688;;;27.45;42.39
44531;BME280;30240;47.418;0.700;2023-06-26T10:38:55;101018.3837890625;;;25.85;43.51
44531;BME280;30240;47.418;0.700;2023-06-26T10:41:20;101018.84155273438;;;24.6;45.62
44531;BME280;30240;47.418;0.700;2023-06-26T10:43:43;101018.84155273438;;;24.6;45.62
44531;BME280;30240;47.418;0.700;2023-06-26T10:46:09;101017.43774414062;;;25.15;45.87
44531;BME280;30240;47.418;0.700;2023-06-26T10:48:57;101008.45947265625;;;26.82;42.92
44531;BME280;30240;47.418;0.700;2023-06-26T10:51:13;101004.6875;;;26.91;43.4
44531;BME280;30240;47.418;0.700;2023-06-26T10:53:24;101009.82055664062;;;24.8;45.29
44531;BME280;30240;47.418;0.700;2023-06-26T10:55:51;101009.82055664062;;;24.8;45.29
44531;BME280;30240;47.418;0.700;2023-06-26T10:58:29;101007.17163085938;;;26.18;43.84
44531;BME280;30240;47.418;0.700;2023-06-26T11:00:49;101013.95263671875;;;27.66;41.25
44531;BME280;30240;47.418;0.700;2023-06-26T11:03:22;101018.56079101562;;;26.28;43.6
44531;BME280;30240;47.418;0.700;2023-06-26T11:05:29;101010.12573242188;;;25.29;45.48
44531;BME280;30240;47.418;0.700;2023-06-26T11:08:05;101010.12573242188;;;25.29;45.48
44531;BME280;30240;47.418;0.700;2023-06-26T11:10:18;101006.35986328125;;;25.6;45.92
44531;BME280;30240;47.418;0.700;2023-06-26T11:12:44;101015.53344726562;;;27.71;42.82
44531;BME280;30240;47.418;0.700;2023-06-26T11:15:09;101012.26806640625;;;26.84;42.73
44531;BME280;30240;47.418;0.700;2023-06-26T11:17:34;101013.5498046875;;;26.64;43.8